Terminal Aerodrome Forecast
Issued by NWS Greer, SC

Home | Current Version | Previous Version | Text Only | Print | Product List | Glossary On
Versions: 1 2 3 4 5 6 7 8 9 10 11 12 13 14 15 16
643
FTUS42 KGSP 030525
TAFGSP
TAF
KGSP 030525Z 0306/0406 34004KT P6SM BKN250
     FM031700 05003KT P6SM SCT140 BKN250
     FM032000 13003KT P6SM BKN120=

USA.gov is the U.S. government's official web portal to all federal, state and local government web resources and services.